Hauptseite
METAR-TAF:

METAR-TAF

Flughäfen :

Cambridge, England

Breite: 52-12N, Länge: 000-11E, Höhe: 15 m

Beobachtung

Neuester Wetterbericht von vor 20 Minuten, um 08:50 UTC
Wind 13 kt aus West
Temperatur 12°C
Luftfeuchtigkeit 62%
Luftdruck 1015 hPa
Sichtweite 10 km oder mehr
Aufgelockert bewölkt in der Höhe von 1900 ft

METAR: EGSC 230850Z 27013KT 9999 SCT019 12/05 Q1015

Zeit: 10:10 (09:10 UTC)

Prognose

Neuester Wetterbericht von vor 1 Stunde und 14 Minuten, um 07:56 UTC
Gültige Prognose vom 23 um 09 UTC bis 23 um 18 UTC
Wind 9 kt aus West/Südwest
Sichtweite 10 km oder mehr
Leicht bewölkt in der Höhe von 2000 ft

TAF: EGSC 230756Z 2309/2318 24009KT 9999 FEW020

Wetterbeobachtungen und Prognosen von mehr als 4000 Flughäfen (METAR und TAF Bericht).

Die verfügbaren Stationen werden durch gelbe und rote Markierungen auf der Karte dargestellt.

Führen Sie die Maus auf sie, um den Namen der Station zu sehen.

Darauf klicken, um die Beobachtung von Wetterbeobachtungen und Prognosen zu sehen.

Um die Karte zu ändern : klicken Sie auf den grünen Tasten mit einem schwarzen Kreuz Zum Vergrößern, auf den grünen Button mit einem Gedankenstrich zu verkleinern, oder auf die grünen Pfeile für benachbarte Karten.


METAR-TAF: